Please disable your adblock and script blockers to view this page.

ICAO: ELLX Country: Luxembourg
Latitude: 49.626575 Longitude: 6.211517
Total Arrivals: 10 Total Departures: 15
Latest Arrival:  SDANK01 (TFFF-ELLX) FredericDuchemin Latest Departure:  SDC1047 (ELLX-LHBP) GeoffreyDe Kergariou
Available Weather Information

METAR FOR ELLX (Issued: Tue, October 17th 2017 12:50 PM UTC):
ELLX 171250Z 18005KT 140V210 CAVOK 20/14 Q1021 NOSIG

Runways

Runway ID Mag Var Hdg Length Elevation Surface ILS Freq ILS Id ILS Slope
6 0 60° 13141 ft 1234 ft Asphalt 109.9 ILE 3
24 0 240° 13141 ft 1234 ft Asphalt 110.7 ILW 3

Luxembourg / Luxembourg




SkyDream Airlines

Start your flying career at SkyDream Airlines today and join a nice and friendly community!

Have fun flying in France and all over the World!

Copyright © 2017 - SkyDream Airlines

AIRAC cycle : 1711 Version : 1 Valid (from/to): 12/OCT/2017 - 08/NOV/2017

Your IP is 162.158.62.43

This page was generated in 0.0005 seconds

Website design by FSX30HD CMS by phpVMS